Elk Point, Canada
Current Conditions -  °F | °C
As of 1:00 AM on Friday 24 Oct 2014 (Local Time) from CYOD Reporting Station
Clear Clear  
Wind Chill:   Ceiling: Unl
Heat Index:   Visibility: 15mi
Dew Point:   Wind: 9mph
Humidity: 70%   Direction: 250°WSW
Pressure: 29.5"   Gusts: NA
Location:  53.9°N, 110.9°W
Report Text: CYOD 240700Z 25008KT 15SM SKC 05/M00 A2950 RMK SLP006
Loading
Personal Weather Stations






























Interactive Weather Map
Tropical Storm Tracking
New forecast layout! Learn more

10-Day Weather Forecast

Advertisements
Track Severe Weather on mobile